Gyumri, Armenia
Current Conditions -  °F | °C
As of 2:00 PM on Wednesday 28 Jan 2015 (Local Time) from UDSG Reporting Station
Haze Haze  
Wind Chill: 28°   Ceiling: 2000
Heat Index: 28°   Visibility: 3mi
Dew Point: 23°   Wind: 2mph
Humidity: 80%   Direction: NA
Pressure: 29.97"   Gusts: NA
Location:  40.78°N, 43.83°E
Report Text: UDSG 280900Z VRB01MPS 5000 BR OVC020 M02/M05 Q1015 R02/CLRD70NOSIG
Loading
Personal Weather Stations






























Interactive Weather Map New forecast layout! Learn more

10-Day Weather Forecast

Advertisements
Track Severe Weather on mobile